createdAt,value
2023-04-14T00:02:23.216Z,3.38
2023-04-14T00:04:54.318Z,3.38
2023-04-14T00:07:21.730Z,3.50
2023-04-14T00:09:48.778Z,3.38
2023-04-14T00:12:16.041Z,3.60
2023-04-14T00:14:46.172Z,3.90
2023-04-14T00:17:13.190Z,5.40
2023-04-14T00:19:40.317Z,3.15
2023-04-14T00:22:07.374Z,3.45
2023-04-14T00:24:40.842Z,3.47
2023-04-14T00:27:07.738Z,3.08
2023-04-14T00:29:34.973Z,3.38
2023-04-14T00:32:02.142Z,3.25
2023-04-14T00:34:29.651Z,3.53
2023-04-14T00:36:56.601Z,4.10
2023-04-14T00:39:23.416Z,3.67
2023-04-14T00:41:50.333Z,3.38
2023-04-14T00:44:17.212Z,3.65
2023-04-14T00:46:44.404Z,3.55
2023-04-14T00:49:11.381Z,4.22
2023-04-14T00:51:38.753Z,3.45
2023-04-14T00:54:09.749Z,3.65
2023-04-14T00:56:36.782Z,3.60
2023-04-14T00:59:04.276Z,3.25
2023-04-14T01:01:33.496Z,3.28
2023-04-14T01:04:01.014Z,3.78
2023-04-14T01:06:28.295Z,3.17
2023-04-14T01:08:56.495Z,3.80
2023-04-14T01:11:53.976Z,3.80
2023-04-14T01:14:42.520Z,3.60
2023-04-14T01:17:44.539Z,3.67
2023-04-14T01:20:14.598Z,4.32
2023-04-14T01:22:55.554Z,4.18
2023-04-14T01:25:50.826Z,3.90
2023-04-14T01:28:23.986Z,4.03
2023-04-14T01:31:20.774Z,3.78
2023-04-14T01:34:08.033Z,4.10
2023-04-14T01:36:48.009Z,3.55
2023-04-14T01:39:21.486Z,3.38
2023-04-14T01:41:52.376Z,3.00
2023-04-14T01:44:22.348Z,2.92
2023-04-14T01:46:52.034Z,3.53
2023-04-14T01:49:21.007Z,3.70
2023-04-14T01:51:48.729Z,3.72
2023-04-14T01:54:18.072Z,3.78
2023-04-14T01:56:45.764Z,3.85
2023-04-14T01:59:13.694Z,4.32
2023-04-14T02:01:41.891Z,4.03
2023-04-14T02:04:09.814Z,3.72
2023-04-14T02:06:37.751Z,4.13
2023-04-14T02:09:10.305Z,4.30
2023-04-14T02:14:06.104Z,3.92
2023-04-14T02:16:36.062Z,3.80
2023-04-14T02:19:05.731Z,3.80
2023-04-14T02:21:34.501Z,4.07
2023-04-14T02:24:02.052Z,4.03
2023-04-14T02:26:32.335Z,4.35
2023-04-14T02:29:12.185Z,4.15
2023-04-14T02:31:55.597Z,4.55
2023-04-14T02:34:27.248Z,4.28
2023-04-14T02:36:57.978Z,4.50
2023-04-14T02:39:38.935Z,4.57
2023-04-14T02:42:14.906Z,4.65
2023-04-14T02:44:56.811Z,4.72
2023-04-14T02:47:31.816Z,4.20
2023-04-14T02:50:00.571Z,4.53
2023-04-14T02:52:31.505Z,4.47
2023-04-14T02:55:00.304Z,4.50
2023-04-14T02:57:29.852Z,4.30
2023-04-14T02:59:58.801Z,4.30
2023-04-14T03:02:27.430Z,4.20
2023-04-14T03:04:54.793Z,4.47
2023-04-14T03:07:23.239Z,4.30
2023-04-14T03:09:51.661Z,4.10
2023-04-14T03:12:20.124Z,4.50
2023-04-14T03:14:48.630Z,4.63
2023-04-14T03:17:18.439Z,4.68
2023-04-14T03:19:50.319Z,4.60
2023-04-14T03:22:18.505Z,4.97
2023-04-14T03:24:45.860Z,4.43
2023-04-14T03:27:16.787Z,5.00
2023-04-14T03:29:47.451Z,4.40
2023-04-14T03:32:17.675Z,5.40
2023-04-14T03:34:48.167Z,4.90
2023-04-14T03:37:18.156Z,4.72
2023-04-14T03:39:47.678Z,4.65
2023-04-14T03:42:16.509Z,5.28
2023-04-14T03:44:50.083Z,5.38
2023-04-14T03:47:18.225Z,5.53
2023-04-14T03:49:48.228Z,5.45
2023-04-14T03:52:21.056Z,6.18
2023-04-14T03:54:50.638Z,4.82
2023-04-14T03:57:19.303Z,4.95
2023-04-14T03:59:50.416Z,4.88
2023-04-14T04:02:18.631Z,5.00
2023-04-14T04:04:47.247Z,4.93
2023-04-14T04:07:14.769Z,4.43
2023-04-14T04:09:42.916Z,4.30
2023-04-14T04:12:11.742Z,4.00
2023-04-14T04:14:40.632Z,5.63
2023-04-14T04:17:09.325Z,4.30
2023-04-14T04:19:37.231Z,4.30
2023-04-14T04:22:04.790Z,4.20
2023-04-14T04:24:37.152Z,4.15
2023-04-14T04:27:07.915Z,3.75
2023-04-14T04:29:38.845Z,4.35
2023-04-14T04:32:06.770Z,3.72
2023-04-14T04:34:34.588Z,4.22
2023-04-14T04:37:02.530Z,3.60
2023-04-14T04:39:32.615Z,3.80
2023-04-14T04:42:07.057Z,3.65
2023-04-14T04:44:34.956Z,3.40
2023-04-14T04:47:02.835Z,4.03
2023-04-14T04:49:29.679Z,3.97
2023-04-14T04:51:57.147Z,3.30
2023-04-14T04:54:24.472Z,3.67
2023-04-14T04:56:51.450Z,3.30
2023-04-14T04:59:18.318Z,3.50
2023-04-14T05:01:45.313Z,4.28
2023-04-14T05:04:12.375Z,3.90
2023-04-14T05:06:39.505Z,4.03
2023-04-14T05:09:08.157Z,4.68
2023-04-14T05:11:35.575Z,4.03
2023-04-14T05:14:02.979Z,3.90
2023-04-14T05:16:30.046Z,3.30
2023-04-14T05:18:57.124Z,3.15
2023-04-14T05:21:24.034Z,4.03
2023-04-14T05:23:51.109Z,3.72
2023-04-14T05:28:49.266Z,4.00
2023-04-14T05:31:16.587Z,3.90
2023-04-14T05:33:43.582Z,3.63
2023-04-14T05:36:11.369Z,3.65
2023-04-14T05:38:40.110Z,3.00
2023-04-14T05:41:07.784Z,3.00
2023-04-14T05:43:34.871Z,3.33
2023-04-14T05:46:01.924Z,3.33
2023-04-14T05:48:31.131Z,3.45
2023-04-14T05:50:59.460Z,3.17
2023-04-14T05:53:27.490Z,2.90
2023-04-14T05:55:54.376Z,2.92
2023-04-14T05:58:21.703Z,3.70
2023-04-14T06:00:48.762Z,3.10
2023-04-14T06:03:16.790Z,4.43
2023-04-14T06:05:43.942Z,4.40
2023-04-14T06:08:10.935Z,3.72
2023-04-14T06:10:37.878Z,3.58
2023-04-14T06:13:04.795Z,4.10
2023-04-14T06:15:31.865Z,3.65
2023-04-14T06:17:58.744Z,3.67
2023-04-14T06:20:25.833Z,3.40
2023-04-14T06:22:52.843Z,4.07
2023-04-14T06:25:19.746Z,4.18
2023-04-14T06:27:46.567Z,3.25
2023-04-14T06:30:15.433Z,3.75
2023-04-14T06:32:42.546Z,3.60
2023-04-14T06:35:16.368Z,3.33
2023-04-14T06:37:43.363Z,3.40
2023-04-14T06:40:10.574Z,3.28
2023-04-14T06:42:37.394Z,3.58
2023-04-14T06:45:04.536Z,3.60
2023-04-14T06:47:31.529Z,3.63
2023-04-14T06:49:58.835Z,3.53
2023-04-14T06:52:25.908Z,3.00
2023-04-14T06:54:52.861Z,3.53
2023-04-14T06:57:19.848Z,3.40
2023-04-14T06:59:46.710Z,2.88
2023-04-14T07:02:13.810Z,3.50
2023-04-14T07:04:40.859Z,3.25
2023-04-14T07:07:07.832Z,3.53
2023-04-14T07:09:35.137Z,3.38
2023-04-14T07:12:02.520Z,3.97
2023-04-14T07:14:34.159Z,4.22
2023-04-14T07:17:00.970Z,3.60
2023-04-14T07:19:27.736Z,3.35
2023-04-14T07:21:54.832Z,3.60
2023-04-14T07:24:21.788Z,3.42
2023-04-14T07:26:48.727Z,3.20
2023-04-14T07:29:16.016Z,3.70
2023-04-14T07:31:43.205Z,3.20
2023-04-14T07:34:10.116Z,3.60
2023-04-14T07:36:37.250Z,3.75
2023-04-14T07:39:04.123Z,2.42
2023-04-14T07:41:31.639Z,2.40
2023-04-14T07:43:59.550Z,2.55
2023-04-14T07:46:27.866Z,2.38
2023-04-14T07:48:55.600Z,2.70
2023-04-14T07:51:22.325Z,2.58
2023-04-14T07:53:51.720Z,2.13
2023-04-14T07:56:18.761Z,2.47
2023-04-14T07:58:45.723Z,2.03
2023-04-14T08:01:12.875Z,2.08
2023-04-14T08:03:41.279Z,2.13
2023-04-14T08:06:09.731Z,2.95
2023-04-14T08:08:36.870Z,2.10
2023-04-14T08:11:03.743Z,1.95
2023-04-14T08:13:30.830Z,1.85
2023-04-14T08:15:58.177Z,1.88
2023-04-14T08:18:25.024Z,2.63
2023-04-14T08:20:51.917Z,1.40
2023-04-14T08:23:18.898Z,2.15
2023-04-14T08:25:45.777Z,1.63
2023-04-14T08:28:12.791Z,2.08
2023-04-14T08:30:39.687Z,1.40
2023-04-14T08:33:07.029Z,2.38
2023-04-14T08:35:41.469Z,2.00
2023-04-14T08:38:09.195Z,1.30
2023-04-14T08:40:41.483Z,1.55
2023-04-14T08:43:09.027Z,1.50
2023-04-14T08:45:36.700Z,1.40
2023-04-14T08:48:04.711Z,1.35
2023-04-14T08:50:45.382Z,1.30
2023-04-14T08:53:13.515Z,1.30
2023-04-14T08:55:41.957Z,1.23
2023-04-14T08:58:10.914Z,1.50
2023-04-14T09:00:40.012Z,1.90
2023-04-14T09:03:09.322Z,1.50
2023-04-14T09:05:37.498Z,1.48
2023-04-14T09:08:05.034Z,1.50
2023-04-14T09:10:32.643Z,6.10
2023-04-14T09:13:00.328Z,2.35
2023-04-14T09:15:29.216Z,1.50
2023-04-14T09:17:56.577Z,2.90
2023-04-14T09:20:38.105Z,2.13
2023-04-14T09:23:09.715Z,2.67
2023-04-14T09:25:38.605Z,1.67
2023-04-14T09:28:05.512Z,2.42
2023-04-14T09:30:33.243Z,2.03
2023-04-14T09:33:04.116Z,2.60
2023-04-14T09:35:43.354Z,2.20
2023-04-14T09:38:10.224Z,1.60
2023-04-14T09:40:39.156Z,1.13
2023-04-14T09:43:06.143Z,1.42
2023-04-14T09:45:44.917Z,1.65
2023-04-14T09:48:13.185Z,2.15
2023-04-14T09:51:00.036Z,1.88
2023-04-14T09:53:31.968Z,1.70
2023-04-14T09:56:00.152Z,1.85
2023-04-14T09:58:32.747Z,2.25
2023-04-14T10:00:59.643Z,2.15
2023-04-14T10:03:34.852Z,1.88
2023-04-14T10:06:04.772Z,2.08
2023-04-14T10:08:36.960Z,2.40
2023-04-14T10:11:26.466Z,2.25
2023-04-14T10:13:55.707Z,2.53
2023-04-14T10:16:24.092Z,2.00
2023-04-14T10:18:52.606Z,2.80
2023-04-14T10:21:22.399Z,2.88
2023-04-14T10:23:49.790Z,3.03
2023-04-14T10:26:17.205Z,2.70
2023-04-14T10:28:51.747Z,2.20
2023-04-14T10:31:52.823Z,2.20
2023-04-14T10:34:21.819Z,2.20
2023-04-14T10:36:49.057Z,2.28
2023-04-14T10:39:24.398Z,2.55
2023-04-14T10:41:53.045Z,3.28
2023-04-14T10:44:34.698Z,4.32
2023-04-14T10:47:07.664Z,3.67
2023-04-14T10:49:36.126Z,3.35
2023-04-14T10:52:26.427Z,3.67
2023-04-14T10:55:02.821Z,3.70
2023-04-14T10:57:30.245Z,3.30
2023-04-14T10:59:59.335Z,3.50
2023-04-14T11:02:28.370Z,3.63
2023-04-14T11:05:06.576Z,4.10
2023-04-14T11:07:47.571Z,3.85
2023-04-14T11:10:17.612Z,3.65
2023-04-14T11:12:46.046Z,3.60
2023-04-14T11:15:13.170Z,3.50
2023-04-14T11:17:41.522Z,3.38
2023-04-14T11:20:19.901Z,3.30
2023-04-14T11:22:50.253Z,3.28
2023-04-14T11:25:24.093Z,2.78
2023-04-14T11:27:52.396Z,2.97
2023-04-14T11:30:21.335Z,3.20
2023-04-14T11:32:53.999Z,2.90
2023-04-14T11:35:23.627Z,3.25
2023-04-14T11:37:54.239Z,3.20
2023-04-14T11:40:22.166Z,7.03
2023-04-14T11:42:59.298Z,2.83
2023-04-14T11:45:30.923Z,2.53
2023-04-14T11:48:03.403Z,3.20
2023-04-14T11:52:59.904Z,2.33
2023-04-14T11:55:27.907Z,2.70
2023-04-14T11:57:55.860Z,2.92
2023-04-14T12:00:24.390Z,3.15
2023-04-14T12:02:51.815Z,4.00
2023-04-14T12:05:25.479Z,3.63
2023-04-14T12:07:59.180Z,4.35
2023-04-14T12:10:27.208Z,3.28
2023-04-14T12:13:08.031Z,3.38
2023-04-14T12:15:40.309Z,3.58
2023-04-14T12:18:13.769Z,3.17
2023-04-14T12:21:01.897Z,3.60
2023-04-14T12:23:28.899Z,3.17
2023-04-14T12:25:56.111Z,3.47
2023-04-14T12:28:30.161Z,4.18
2023-04-14T12:31:02.323Z,4.03
2023-04-14T12:33:31.046Z,3.95
2023-04-14T12:36:05.304Z,3.42
2023-04-14T12:38:33.159Z,4.10
2023-04-14T12:41:00.549Z,4.55
2023-04-14T12:43:32.120Z,3.47
2023-04-14T12:45:59.910Z,4.17
2023-04-14T12:48:44.784Z,3.85
2023-04-14T12:51:13.959Z,4.13
2023-04-14T12:53:42.741Z,3.10
2023-04-14T12:56:22.237Z,3.22
2023-04-14T12:58:49.612Z,2.92
2023-04-14T13:01:18.222Z,2.88
2023-04-14T13:03:55.762Z,2.90
2023-04-14T13:06:24.189Z,2.58
2023-04-14T13:08:53.641Z,2.97
2023-04-14T13:11:22.299Z,2.90
2023-04-14T13:13:49.346Z,2.72
2023-04-14T13:16:27.268Z,2.33
2023-04-14T13:18:54.757Z,2.40
2023-04-14T13:21:21.608Z,3.33
2023-04-14T13:23:48.536Z,2.95
2023-04-14T13:26:18.541Z,2.90
2023-04-14T13:28:46.021Z,2.92
2023-04-14T13:31:17.192Z,2.78
2023-04-14T13:33:44.475Z,2.80
2023-04-14T13:36:11.280Z,2.55
2023-04-14T13:38:38.225Z,2.58
2023-04-14T13:41:05.089Z,3.00
2023-04-14T13:43:33.134Z,3.20
2023-04-14T13:46:00.803Z,2.30
2023-04-14T13:48:28.029Z,2.40
2023-04-14T13:50:55.898Z,2.13
2023-04-14T13:53:22.960Z,2.40
2023-04-14T13:55:49.821Z,2.10
2023-04-14T13:58:16.641Z,1.98
2023-04-14T14:00:43.503Z,1.88
2023-04-14T14:03:10.378Z,1.75
2023-04-14T14:05:37.351Z,1.95
2023-04-14T14:08:04.182Z,1.90
2023-04-14T14:10:31.097Z,2.20
2023-04-14T14:12:57.890Z,2.80
2023-04-14T14:15:24.757Z,2.00
2023-04-14T14:17:53.270Z,2.10
2023-04-14T14:20:20.329Z,2.40
2023-04-14T14:22:47.729Z,2.50
2023-04-14T14:25:21.110Z,2.13
2023-04-14T14:27:49.136Z,2.20
2023-04-14T14:30:16.290Z,2.25
2023-04-14T14:32:43.154Z,2.35
2023-04-14T14:35:10.494Z,2.08
2023-04-14T14:37:37.460Z,2.58
2023-04-14T14:40:04.711Z,2.20
2023-04-14T14:42:31.556Z,2.55
2023-04-14T14:44:59.250Z,2.00
2023-04-14T14:47:28.360Z,2.33
2023-04-14T14:50:00.912Z,2.55
2023-04-14T14:52:34.066Z,2.75
2023-04-14T14:55:01.766Z,2.33
2023-04-14T14:57:29.571Z,2.08
2023-04-14T14:59:57.248Z,2.00
2023-04-14T15:02:25.524Z,2.15
2023-04-14T15:04:53.428Z,2.00
2023-04-14T15:07:20.830Z,1.95
2023-04-14T15:09:48.774Z,2.13
2023-04-14T15:12:15.606Z,1.70
2023-04-14T15:14:42.532Z,15.48
2023-04-14T15:17:09.358Z,7.93
2023-04-14T15:19:37.932Z,2.15
2023-04-14T15:22:04.744Z,2.33
2023-04-14T15:24:31.626Z,1.88
2023-04-14T15:26:58.469Z,1.90
2023-04-14T15:29:26.665Z,2.85
2023-04-14T15:31:53.619Z,1.85
2023-04-14T15:34:21.496Z,1.98
2023-04-14T15:36:48.488Z,1.90
2023-04-14T15:39:15.452Z,1.70
2023-04-14T15:41:42.381Z,2.03
2023-04-14T15:44:09.215Z,1.70
2023-04-14T15:46:36.020Z,1.70
2023-04-14T15:49:02.809Z,1.80
2023-04-14T15:51:29.811Z,2.50
2023-04-14T15:53:57.749Z,2.90
2023-04-14T15:56:24.604Z,3.03
2023-04-14T15:58:51.476Z,2.25
2023-04-14T16:01:18.413Z,2.30
2023-04-14T16:03:45.427Z,2.60
2023-04-14T16:06:12.436Z,2.20
2023-04-14T16:08:39.416Z,2.80
2023-04-14T16:11:06.331Z,2.75
2023-04-14T16:13:33.220Z,3.00
2023-04-14T16:16:00.206Z,3.33
2023-04-14T16:18:27.615Z,3.00
2023-04-14T16:20:54.416Z,2.78
2023-04-14T16:23:21.966Z,3.08
2023-04-14T16:25:51.847Z,3.38
2023-04-14T16:28:18.697Z,3.33
2023-04-14T16:30:48.190Z,3.35
2023-04-14T16:33:16.622Z,3.42
2023-04-14T16:35:43.418Z,3.00
2023-04-14T16:38:10.266Z,3.90
2023-04-14T16:40:38.025Z,3.20
2023-04-14T16:43:04.935Z,2.67
2023-04-14T16:45:32.259Z,3.38
2023-04-14T16:47:59.564Z,3.53
2023-04-14T16:50:27.265Z,3.60
2023-04-14T16:52:55.633Z,3.20
2023-04-14T16:55:22.545Z,3.45
2023-04-14T16:57:49.325Z,3.40
2023-04-14T17:00:16.886Z,3.55
2023-04-14T17:02:43.985Z,3.00
2023-04-14T17:05:13.310Z,2.97
2023-04-14T17:07:41.138Z,3.10
2023-04-14T17:10:08.763Z,3.75
2023-04-14T17:12:35.580Z,3.88
2023-04-14T17:15:03.788Z,4.43
2023-04-14T17:17:31.979Z,3.70
2023-04-14T17:19:59.515Z,3.33
2023-04-14T17:22:27.635Z,3.47
2023-04-14T17:24:54.909Z,3.22
2023-04-14T17:27:22.369Z,3.50
2023-04-14T17:29:49.489Z,4.00
2023-04-14T17:32:18.539Z,5.10
2023-04-14T17:34:48.438Z,5.25
2023-04-14T17:37:15.878Z,6.63
2023-04-14T17:39:43.334Z,6.32
2023-04-14T17:42:11.438Z,6.88
2023-04-14T17:44:38.445Z,6.30
2023-04-14T17:47:13.141Z,6.85
2023-04-14T17:49:40.090Z,6.40
2023-04-14T17:52:07.864Z,7.47
2023-04-14T17:54:36.233Z,6.15
2023-04-14T17:57:04.445Z,4.25
2023-04-14T18:03:18.797Z,4.97
2023-04-14T18:05:45.619Z,3.97
2023-04-14T18:08:12.428Z,4.55
2023-04-14T18:10:39.243Z,4.03
2023-04-14T18:13:06.036Z,3.80
2023-04-14T18:15:32.832Z,4.32
2023-04-14T18:17:59.621Z,4.47
2023-04-14T18:20:26.636Z,3.50
2023-04-14T18:22:54.672Z,3.90
2023-04-14T18:25:21.682Z,4.00
2023-04-14T18:30:18.584Z,3.72
2023-04-14T18:32:46.545Z,3.88
2023-04-14T18:35:13.596Z,4.13
2023-04-14T18:37:40.517Z,3.90
2023-04-14T18:40:07.973Z,3.85
2023-04-14T18:42:36.017Z,3.63
2023-04-14T18:45:03.592Z,3.58
2023-04-14T18:47:30.503Z,3.75
2023-04-14T18:49:57.415Z,3.55
2023-04-14T18:52:24.239Z,3.83
2023-04-14T18:54:51.374Z,3.72
2023-04-14T18:57:18.463Z,3.80
2023-04-14T18:59:45.799Z,3.88
2023-04-14T19:02:13.770Z,3.92
2023-04-14T19:04:40.964Z,3.97
2023-04-14T19:07:07.820Z,4.10
2023-04-14T19:09:36.178Z,4.35
2023-04-14T19:12:03.581Z,4.60
2023-04-14T19:14:30.436Z,4.80
2023-04-14T19:16:57.964Z,4.20
2023-04-14T19:19:25.224Z,4.32
2023-04-14T19:21:52.034Z,4.93
2023-04-14T19:24:20.007Z,5.63
2023-04-14T19:26:47.142Z,5.55
2023-04-14T19:29:14.177Z,5.55
2023-04-14T19:31:40.994Z,6.28
2023-04-14T19:34:07.895Z,5.95
2023-04-14T19:36:34.993Z,5.90
2023-04-14T19:39:02.443Z,5.70
2023-04-14T19:41:29.373Z,5.43
2023-04-14T19:43:56.482Z,5.50
2023-04-14T19:46:23.340Z,7.00
2023-04-14T19:48:50.264Z,6.72
2023-04-14T19:51:17.125Z,6.10
2023-04-14T19:53:46.357Z,6.28
2023-04-14T19:56:15.897Z,5.82
2023-04-14T19:58:45.319Z,5.80
2023-04-14T20:01:13.008Z,6.82
2023-04-14T20:04:05.601Z,11.65
2023-04-14T20:06:27.753Z,10.32
2023-04-14T20:08:54.670Z,7.88
2023-04-14T20:11:21.804Z,8.13
2023-04-14T20:13:48.684Z,8.38
2023-04-14T20:16:16.040Z,8.30
2023-04-14T20:18:45.391Z,6.60
2023-04-14T20:21:13.791Z,5.28
2023-04-14T20:23:40.864Z,4.80
2023-04-14T20:26:08.042Z,4.68
2023-04-14T20:28:35.204Z,4.72
2023-04-14T20:31:03.322Z,4.57
2023-04-14T20:33:31.039Z,4.75
2023-04-14T20:36:00.057Z,4.43
2023-04-14T20:38:26.990Z,4.22
2023-04-14T20:40:54.029Z,5.38
2023-04-14T20:43:21.599Z,4.25
2023-04-14T20:45:50.110Z,4.45
2023-04-14T20:48:17.168Z,4.90
2023-04-14T20:50:44.563Z,5.07
2023-04-14T20:53:11.540Z,4.68
2023-04-14T20:55:41.185Z,5.60
2023-04-14T20:58:09.574Z,5.95
2023-04-14T21:00:36.681Z,6.35
2023-04-14T21:03:04.024Z,6.22
2023-04-14T21:05:41.714Z,5.25
2023-04-14T21:08:09.720Z,5.50
2023-04-14T21:10:36.563Z,5.43
2023-04-14T21:15:26.470Z,5.30
2023-04-14T21:16:10.304Z,6.47
2023-04-14T21:18:37.443Z,5.70
2023-04-14T21:21:05.015Z,4.72
2023-04-14T21:23:31.938Z,5.45
2023-04-14T21:25:59.994Z,4.60
2023-04-14T21:28:27.230Z,3.88
2023-04-14T21:31:01.157Z,4.20
2023-04-14T21:33:28.659Z,4.25
2023-04-14T21:35:56.500Z,5.55
2023-04-14T21:38:24.641Z,5.72
2023-04-14T21:40:51.656Z,4.82
2023-04-14T21:43:18.507Z,5.07
2023-04-14T21:45:45.545Z,4.57
2023-04-14T21:48:12.786Z,4.03
2023-04-14T21:50:39.904Z,4.20
2023-04-14T21:53:06.747Z,4.13
2023-04-14T21:55:33.626Z,4.43
2023-04-14T21:58:04.846Z,4.03
2023-04-14T22:00:31.989Z,4.05
2023-04-14T22:02:58.965Z,4.15
2023-04-14T22:05:25.955Z,5.78
2023-04-14T22:07:53.895Z,8.77
2023-04-14T22:10:21.877Z,8.10
2023-04-14T22:12:49.072Z,7.97
2023-04-14T22:15:16.831Z,6.82
2023-04-14T22:17:44.874Z,6.53
2023-04-14T22:20:12.094Z,8.52
2023-04-14T22:22:38.960Z,7.88
2023-04-14T22:25:06.656Z,5.75
2023-04-14T22:27:34.624Z,4.75
2023-04-14T22:30:02.696Z,4.38
2023-04-14T22:32:29.698Z,3.78
2023-04-14T22:34:56.499Z,3.92
2023-04-14T22:37:23.438Z,4.28
2023-04-14T22:39:50.496Z,3.95
2023-04-14T22:42:17.597Z,4.20
2023-04-14T22:44:44.538Z,4.65
2023-04-14T22:47:11.354Z,4.18
2023-04-14T22:49:38.190Z,4.55
2023-04-14T22:52:05.307Z,5.18
2023-04-14T22:54:32.755Z,4.80
2023-04-14T22:57:00.032Z,6.30
2023-04-14T22:59:27.136Z,5.90
2023-04-14T23:01:54.240Z,5.63
2023-04-14T23:04:21.401Z,7.03
2023-04-14T23:06:48.930Z,6.70
2023-04-14T23:09:16.161Z,5.65
2023-04-14T23:11:43.318Z,5.28
2023-04-14T23:14:10.211Z,4.97
2023-04-14T23:16:37.272Z,4.15
2023-04-14T23:19:04.354Z,3.75
2023-04-14T23:21:31.393Z,4.90
2023-04-14T23:23:58.314Z,4.80
2023-04-14T23:26:25.706Z,4.78
2023-04-14T23:28:53.152Z,4.38
2023-04-14T23:31:20.081Z,4.57
2023-04-14T23:33:49.547Z,5.07
2023-04-14T23:36:16.622Z,5.00
2023-04-14T23:38:43.832Z,4.80
2023-04-14T23:41:11.204Z,5.05
2023-04-14T23:43:38.057Z,4.93
2023-04-14T23:46:05.143Z,5.38
2023-04-14T23:48:32.490Z,4.82
2023-04-14T23:51:16.877Z,5.15
2023-04-14T23:53:46.121Z,4.95
2023-04-14T23:56:13.072Z,5.30
2023-04-14T23:58:40.110Z,5.47
